Time,TemperatureF,DewpointF,PressureIn,WindDirection,WindDirectionDegrees,WindSpeedMPH,WindSpeedGustMPH,Humidity,HourlyPrecipIn,Conditions,Clouds,dailyrainin,SolarRadiationWatts/m^2,SoftwareType,DateUTC
2013-01-07 00:00:00,35.6,30.9,30.01,West,277,10.4,10.4,83,0.00,OVC,,0.00,0.0,WeatherDisplay:10.37,2013-01-07 05:00:00,
2013-01-07 00:01:00,35.6,30.9,30.01,West,277,10.4,10.4,83,0.00,OVC,,0.00,0.0,WeatherDisplay:10.37,2013-01-07 05:01:00,
2013-01-07 00:06:00,35.6,30.9,30.01,West,267,12.0,12.0,83,0.00,-RA,,0.00,0.0,WeatherDisplay:10.37,2013-01-07 05:06:00,
2013-01-07 00:11:00,35.6,30.9,30.02,West,265,11.5,11.5,83,0.00,-RA,,0.00,0.0,WeatherDisplay:10.37,2013-01-07 05:11:00,
2013-01-07 00:16:00,35.8,31.1,30.02,WSW,250,11.0,11.0,83,0.00,-RA,,0.00,0.0,WeatherDisplay:10.37,2013-01-07 05:16:00,
2013-01-07 00:21:00,35.6,30.9,30.02,West,265,9.2,9.2,83,0.00,-RA,,0.00,0.0,WeatherDisplay:10.37,2013-01-07 05:21:00,
2013-01-07 00:26:00,35.6,31.2,30.03,WSW,256,12.0,12.0,84,0.00,-RA,,0.00,0.0,WeatherDisplay:10.37,2013-01-07 05:26:00,
2013-01-07 00:31:00,35.3,30.9,30.03,SW,232,10.4,10.4,84,0.01,-RA,,0.01,0.0,WeatherDisplay:10.37,2013-01-07 05:31:00,
2013-01-07 00:36:00,34.9,30.8,30.03,West,281,6.0,6.0,85,0.01,-RA,,0.01,0.0,WeatherDisplay:10.37,2013-01-07 05:36:00,
2013-01-07 00:41:00,34.6,30.8,30.04,West,268,4.6,4.6,86,0.01,-RA,,0.01,0.0,WeatherDisplay:10.37,2013-01-07 05:41:00,
2013-01-07 00:46:00,34.4,30.9,30.04,West,276,9.0,9.0,87,0.01,-RA,,0.01,0.0,WeatherDisplay:10.37,2013-01-07 05:46:00,
2013-01-07 00:51:00,34.1,30.6,30.04,WNW,302,10.0,10.0,87,0.02,-RA,,0.02,0.0,WeatherDisplay:10.37,2013-01-07 05:51:00,
2013-01-07 00:56:00,34.1,30.9,30.04,WNW,298,6.0,6.0,88,0.02,-RA,,0.02,0.0,WeatherDisplay:10.37,2013-01-07 05:56:00,
2013-01-07 01:01:00,34.0,30.8,30.04,NNW,346,12.7,12.7,88,0.02,-RA,,0.02,0.0,WeatherDisplay:10.37,2013-01-07 06:01:00,
2013-01-07 01:06:00,34.0,31.1,30.04,West,273,12.0,12.0,89,0.02,-RA,,0.02,0.0,WeatherDisplay:10.37,2013-01-07 06:06:00,
2013-01-07 01:11:00,34.0,31.1,30.05,WNW,284,6.0,6.0,89,0.02,-RA,,0.02,0.0,WeatherDisplay:10.37,2013-01-07 06:11:00,
2013-01-07 01:16:00,33.8,30.9,30.05,WNW,297,9.2,9.2,89,0.02,OVC,,0.02,0.0,WeatherDisplay:10.37,2013-01-07 06:16:00,
2013-01-07 01:21:00,33.8,31.2,30.05,West,272,12.0,12.0,90,0.02,OVC,,0.02,0.0,WeatherDisplay:10.37,2013-01-07 06:21:00,
2013-01-07 01:26:00,33.8,31.2,30.06,WNW,285,10.4,10.4,90,0.02,OVC,,0.02,0.0,WeatherDisplay:10.37,2013-01-07 06:26:00,
2013-01-07 01:31:00,33.8,31.2,30.06,WNW,299,6.0,6.0,90,0.02,OVC,,0.02,0.0,WeatherDisplay:10.37,2013-01-07 06:31:00,
2013-01-07 01:36:00,33.8,31.2,30.06,West,263,4.0,4.0,90,0.01,OVC,,0.02,0.0,WeatherDisplay:10.37,2013-01-07 06:36:00,
2013-01-07 01:41:00,33.8,31.2,30.07,West,278,6.0,6.0,90,0.01,OVC,,0.02,0.0,WeatherDisplay:10.37,2013-01-07 06:41:00,
2013-01-07 01:46:00,33.8,31.5,30.07,West,260,7.0,7.0,91,0.01,OVC,,0.02,0.0,WeatherDisplay:10.37,2013-01-07 06:46:00,
2013-01-07 01:51:00,33.8,31.5,30.07,West,275,8.1,8.1,91,0.01,OVC,,0.02,0.0,WeatherDisplay:10.37,2013-01-07 06:51:00,
2013-01-07 01:56:00,33.8,31.5,30.08,WNW,291,5.8,5.8,91,0.00,OVC,,0.02,0.0,WeatherDisplay:10.37,2013-01-07 06:56:00,
2013-01-07 02:01:00,33.8,31.5,30.08,WNW,289,6.9,6.9,91,0.00,OVC,,0.02,0.0,WeatherDisplay:10.37,2013-01-07 07:01:00,
2013-01-07 02:06:00,33.8,31.5,30.08,SW,236,5.0,5.0,91,0.00,OVC,,0.02,0.0,WeatherDisplay:10.37,2013-01-07 07:06:00,
2013-01-07 02:11:00,33.8,31.5,30.09,West,272,6.0,6.0,91,0.00,OVC,,0.02,0.0,WeatherDisplay:10.37,2013-01-07 07:11:00,
2013-01-07 02:16:00,33.8,31.5,30.09,WSW,255,9.0,9.0,91,0.00,OVC,,0.02,0.0,WeatherDisplay:10.37,2013-01-07 07:16:00,
2013-01-07 02:21:00,33.7,31.4,30.09,West,268,5.0,5.0,91,0.00,OVC,,0.02,0.0,WeatherDisplay:10.37,2013-01-07 07:21:00,
2013-01-07 02:26:00,33.7,31.4,30.11,West,262,5.0,5.0,91,0.00,OVC,,0.02,0.0,WeatherDisplay:10.37,2013-01-07 07:26:00,
2013-01-07 02:31:00,33.7,31.4,30.11,NW,305,6.9,6.9,91,0.00,OVC,,0.02,0.0,WeatherDisplay:10.37,2013-01-07 07:31:00,
2013-01-07 02:36:00,33.7,31.4,30.11,West,259,7.0,7.0,91,0.00,OVC,,0.02,0.0,WeatherDisplay:10.37,2013-01-07 07:36:00,
2013-01-07 02:41:00,33.5,31.2,30.12,WNW,302,7.0,7.0,91,0.00,OVC,,0.02,0.0,WeatherDisplay:10.37,2013-01-07 07:41:00,
2013-01-07 02:46:00,33.5,31.2,30.12,WNW,290,11.5,11.5,91,0.00,OVC,,0.02,0.0,WeatherDisplay:10.37,2013-01-07 07:46:00,
2013-01-07 02:51:00,33.4,31.1,30.12,WNW,284,6.0,6.0,91,0.00,OVC,,0.02,0.0,WeatherDisplay:10.37,2013-01-07 07:51:00,
2013-01-07 02:56:00,33.4,30.8,30.12,WNW,299,9.2,9.2,90,0.00,OVC,,0.02,0.0,WeatherDisplay:10.37,2013-01-07 07:56:00,
2013-01-07 03:01:00,33.2,30.6,30.12,NW,310,9.0,9.0,90,0.00,OVC,,0.02,0.0,WeatherDisplay:10.37,2013-01-07 08:01:00,
2013-01-07 03:06:00,32.9,30.3,30.12,West,281,13.0,13.0,90,0.00,OVC,,0.02,0.0,WeatherDisplay:10.37,2013-01-07 08:06:00,
2013-01-07 03:11:00,32.8,30.2,30.13,WNW,282,7.0,7.0,90,0.00,OVC,,0.02,0.0,WeatherDisplay:10.37,2013-01-07 08:11:00,
2013-01-07 03:16:00,32.8,30.2,30.13,NW,306,6.0,6.0,90,0.00,OVC,,0.02,0.0,WeatherDisplay:10.37,2013-01-07 08:16:00,
2013-01-07 03:21:00,32.4,29.5,30.13,NW,312,13.0,13.0,89,0.00,OVC,,0.02,0.0,WeatherDisplay:10.37,2013-01-07 08:21:00,
2013-01-07 03:26:00,31.9,28.8,30.15,NW,316,11.5,11.5,88,0.00,OVC,,0.02,0.0,WeatherDisplay:10.37,2013-01-07 08:26:00,
2013-01-07 03:31:00,31.6,28.2,30.15,WNW,287,14.0,14.0,87,0.00,OVC,,0.02,0.0,WeatherDisplay:10.37,2013-01-07 08:31:00,
2013-01-07 03:36:00,31.3,27.9,30.15,NW,305,14.0,14.0,87,0.00,BKN,,0.02,0.0,WeatherDisplay:10.37,2013-01-07 08:36:00,
2013-01-07 03:41:00,30.9,26.9,30.16,NW,319,12.0,12.0,85,0.00,BKN,,0.02,0.0,WeatherDisplay:10.37,2013-01-07 08:41:00,
2013-01-07 03:46:00,30.4,26.1,30.16,WNW,298,17.3,17.3,84,0.00,BKN,,0.02,0.0,WeatherDisplay:10.37,2013-01-07 08:46:00,
2013-01-07 03:51:00,30.3,25.8,30.16,NW,326,16.1,16.1,83,0.00,BKN,,0.02,0.0,WeatherDisplay:10.37,2013-01-07 08:51:00,
2013-01-07 03:56:00,30.1,25.6,30.17,WNW,295,15.0,15.0,83,0.00,BKN,,0.02,0.0,WeatherDisplay:10.37,2013-01-07 08:56:00,
2013-01-07 04:01:00,30.0,25.5,30.17,WNW,291,13.0,13.0,83,0.00,BKN,,0.02,0.0,WeatherDisplay:10.37,2013-01-07 09:01:00,
2013-01-07 04:06:00,29.8,25.3,30.17,NW,310,12.7,12.7,83,0.00,BKN,,0.02,0.0,WeatherDisplay:10.37,2013-01-07 09:06:00,
2013-01-07 04:11:00,29.8,25.3,30.18,WNW,284,15.0,15.0,83,0.00,BKN,,0.02,0.0,WeatherDisplay:10.37,2013-01-07 09:11:00,
2013-01-07 04:16:00,29.7,25.2,30.18,WNW,293,13.8,13.8,83,0.00,OVC,,0.02,0.0,WeatherDisplay:10.37,2013-01-07 09:16:00,
2013-01-07 04:21:00,29.5,25.0,30.18,NW,317,13.0,13.0,83,0.00,OVC,,0.02,0.0,WeatherDisplay:10.37,2013-01-07 09:21:00,
2013-01-07 04:26:00,29.4,24.9,30.20,NW,324,11.5,11.5,83,0.00,OVC,,0.02,0.0,WeatherDisplay:10.37,2013-01-07 09:26:00,
2013-01-07 04:31:00,29.3,24.8,30.20,WNW,287,15.0,15.0,83,0.00,OVC,,0.02,0.0,WeatherDisplay:10.37,2013-01-07 09:31:00,
2013-01-07 04:36:00,29.3,24.5,30.20,West,266,15.0,15.0,82,0.00,OVC,,0.02,0.0,WeatherDisplay:10.37,2013-01-07 09:36:00,
2013-01-07 04:41:00,29.3,24.5,30.21,WNW,284,10.4,10.4,82,0.00,OVC,,0.02,0.0,WeatherDisplay:10.37,2013-01-07 09:41:00,
2013-01-07 04:46:00,29.1,24.3,30.21,West,279,10.4,10.4,82,0.00,OVC,,0.02,0.0,WeatherDisplay:10.37,2013-01-07 09:46:00,
2013-01-07 04:51:00,29.1,24.3,30.21,WSW,240,14.0,14.0,82,0.00,OVC,,0.02,0.0,WeatherDisplay:10.37,2013-01-07 09:51:00,
2013-01-07 04:56:00,28.8,24.0,30.21,West,271,9.2,9.2,82,0.00,OVC,,0.02,0.0,WeatherDisplay:10.37,2013-01-07 09:56:00,
2013-01-07 05:01:00,28.7,23.9,30.21,WNW,289,13.0,13.0,82,0.00,OVC,,0.02,0.0,WeatherDisplay:10.37,2013-01-07 10:01:00,
2013-01-07 05:06:00,28.5,23.4,30.21,West,267,13.8,13.8,81,0.00,OVC,,0.02,0.0,WeatherDisplay:10.37,2013-01-07 10:06:00,
2013-01-07 05:11:00,28.5,23.4,30.22,NW,318,11.0,11.0,81,0.00,OVC,,0.02,0.0,WeatherDisplay:10.37,2013-01-07 10:11:00,
2013-01-07 05:16:00,28.4,23.3,30.22,WNW,298,11.5,11.5,81,0.00,OVC,,0.02,0.0,WeatherDisplay:10.37,2013-01-07 10:16:00,
2013-01-07 05:21:00,28.4,23.3,30.22,WNW,300,9.2,9.2,81,0.00,OVC,,0.02,0.0,WeatherDisplay:10.37,2013-01-07 10:21:00,
2013-01-07 05:26:00,28.4,23.6,30.24,NW,310,5.0,5.0,82,0.00,OVC,,0.02,0.0,WeatherDisplay:10.37,2013-01-07 10:26:00,
2013-01-07 05:31:00,28.2,23.4,30.24,NW,305,11.0,11.0,82,0.00,OVC,,0.02,0.0,WeatherDisplay:10.37,2013-01-07 10:31:00,
2013-01-07 05:36:00,28.1,23.0,30.24,NW,310,9.2,9.2,81,0.00,OVC,,0.02,0.0,WeatherDisplay:10.37,2013-01-07 10:36:00,
2013-01-07 05:41:00,27.6,21.9,30.25,NW,323,11.5,11.5,79,0.00,OVC,,0.02,0.0,WeatherDisplay:10.37,2013-01-07 10:41:00,
2013-01-07 05:46:00,27.3,21.3,30.25,NW,324,11.5,11.5,78,0.00,OVC,,0.02,0.0,WeatherDisplay:10.37,2013-01-07 10:46:00,
2013-01-07 05:51:00,27.2,21.2,30.25,NNW,334,6.0,6.0,78,0.00,OVC,,0.02,0.0,WeatherDisplay:10.37,2013-01-07 10:51:00,
2013-01-07 05:56:00,27.0,21.1,30.26,NNW,332,7.0,7.0,78,0.00,OVC,,0.02,0.0,WeatherDisplay:10.37,2013-01-07 10:56:00,
2013-01-07 06:01:00,26.9,21.0,30.26,NNW,327,10.4,10.4,78,0.00,OVC,,0.02,0.0,WeatherDisplay:10.37,2013-01-07 11:01:00,
2013-01-07 06:06:00,26.9,21.0,30.26,NNW,327,8.1,8.1,78,0.00,OVC,,0.02,0.0,WeatherDisplay:10.37,2013-01-07 11:06:00,
2013-01-07 06:11:00,26.7,20.8,30.27,NNW,330,6.0,6.0,78,0.00,OVC,,0.02,0.0,WeatherDisplay:10.37,2013-01-07 11:11:00,
2013-01-07 06:16:00,26.7,20.8,30.27,NW,315,6.0,6.0,78,0.00,OVC,,0.02,0.0,WeatherDisplay:10.37,2013-01-07 11:16:00,
2013-01-07 06:21:00,26.7,20.8,30.27,NW,310,12.0,12.0,78,0.00,OVC,,0.02,0.0,WeatherDisplay:10.37,2013-01-07 11:21:00,
2013-01-07 06:26:00,26.7,20.8,30.28,NW,322,10.4,10.4,78,0.00,OVC,,0.02,0.0,WeatherDisplay:10.37,2013-01-07 11:26:00,
2013-01-07 06:31:00,26.7,20.8,30.28,NW,309,13.0,13.0,78,0.00,OVC,,0.02,0.0,WeatherDisplay:10.37,2013-01-07 11:31:00,
2013-01-07 06:36:00,26.6,20.7,30.28,NW,320,6.0,6.0,78,0.00,OVC,,0.02,0.0,WeatherDisplay:10.37,2013-01-07 11:36:00,
2013-01-07 06:42:00,26.6,20.7,30.29,WNW,298,4.6,4.6,78,0.00,OVC,,0.02,0.0,WeatherDisplay:10.37,2013-01-07 11:42:00,
2013-01-07 06:47:00,26.6,20.7,30.29,NW,314,4.0,4.0,78,0.00,OVC,,0.02,0.0,WeatherDisplay:10.37,2013-01-07 11:47:00,
2013-01-07 06:52:00,26.6,20.7,30.29,WNW,298,4.0,4.0,78,0.00,OVC,,0.02,0.0,WeatherDisplay:10.37,2013-01-07 11:52:00,
2013-01-07 06:57:00,26.4,20.5,30.30,WNW,289,11.5,11.5,78,0.00,OVC,,0.02,0.0,WeatherDisplay:10.37,2013-01-07 11:57:00,
2013-01-07 07:02:00,26.4,20.5,30.30,WNW,289,6.0,6.0,78,0.00,OVC,,0.02,0.0,WeatherDisplay:10.37,2013-01-07 12:02:00,
2013-01-07 07:07:00,26.3,20.4,30.30,WNW,293,9.0,9.0,78,0.00,OVC,,0.02,0.0,WeatherDisplay:10.37,2013-01-07 12:07:00,
2013-01-07 07:12:00,26.3,20.4,30.31,WNW,293,5.0,5.0,78,0.00,OVC,,0.02,0.0,WeatherDisplay:10.37,2013-01-07 12:12:00,
2013-01-07 07:17:00,26.1,20.5,30.31,WNW,300,7.0,7.0,79,0.00,OVC,,0.02,0.0,WeatherDisplay:10.37,2013-01-07 12:17:00,
2013-01-07 07:22:00,26.1,20.5,30.31,WNW,298,9.0,9.0,79,0.00,OVC,,0.02,0.0,WeatherDisplay:10.37,2013-01-07 12:22:00,
2013-01-07 07:27:00,26.1,20.5,30.32,WSW,241,5.0,5.0,79,0.00,OVC,,0.02,0.0,WeatherDisplay:10.37,2013-01-07 12:27:00,
2013-01-07 07:32:00,26.1,20.5,30.32,WSW,252,3.5,3.5,79,0.00,OVC,,0.02,0.0,WeatherDisplay:10.37,2013-01-07 12:32:00,
2013-01-07 07:37:00,26.0,20.4,30.32,NW,309,6.9,6.9,79,0.00,OVC,,0.02,0.0,WeatherDisplay:10.37,2013-01-07 12:37:00,
2013-01-07 07:42:00,25.7,20.1,30.34,SW,227,5.8,5.8,79,0.00,OVC,,0.02,0.0,WeatherDisplay:10.37,2013-01-07 12:42:00,
2013-01-07 07:47:00,25.6,20.3,30.34,SW,225,11.5,11.5,80,0.00,OVC,,0.02,0.0,WeatherDisplay:10.37,2013-01-07 12:47:00,
2013-01-07 07:52:00,25.4,20.1,30.34,West,274,12.0,12.0,80,0.00,OVC,,0.02,0.0,WeatherDisplay:10.37,2013-01-07 12:52:00,
2013-01-07 07:57:00,25.3,20.0,30.35,West,270,6.0,6.0,80,0.00,OVC,,0.02,5.0,WeatherDisplay:10.37,2013-01-07 12:57:00,
2013-01-07 08:02:00,25.1,19.8,30.35,WSW,249,7.0,7.0,80,0.00,OVC,,0.02,7.0,WeatherDisplay:10.37,2013-01-07 13:02:00,
2013-01-07 08:07:00,25.0,20.0,30.35,West,262,14.0,14.0,81,0.00,OVC,,0.02,9.0,WeatherDisplay:10.37,2013-01-07 13:07:00,
2013-01-07 08:12:00,25.0,20.0,30.36,West,277,12.7,12.7,81,0.00,OVC,,0.02,11.0,WeatherDisplay:10.37,2013-01-07 13:12:00,
2013-01-07 08:17:00,24.8,19.8,30.36,West,267,9.2,9.2,81,0.00,OVC,,0.02,11.0,WeatherDisplay:10.37,2013-01-07 13:17:00,
2013-01-07 08:22:00,24.7,19.7,30.36,WSW,255,6.9,6.9,81,0.00,OVC,,0.02,12.0,WeatherDisplay:10.37,2013-01-07 13:22:00,
2013-01-07 08:27:00,24.7,19.7,30.37,West,261,9.0,9.0,81,0.00,OVC,,0.02,14.0,WeatherDisplay:10.37,2013-01-07 13:27:00,
2013-01-07 08:32:00,24.7,19.7,30.37,SSW,213,10.0,10.0,81,0.00,OVC,,0.02,18.0,WeatherDisplay:10.37,2013-01-07 13:32:00,
2013-01-07 08:37:00,24.7,19.7,30.37,WNW,291,11.5,11.5,81,0.00,OVC,,0.02,21.0,WeatherDisplay:10.37,2013-01-07 13:37:00,
2013-01-07 08:42:00,24.7,19.4,30.38,West,262,11.5,11.5,80,0.00,OVC,,0.02,25.0,WeatherDisplay:10.37,2013-01-07 13:42:00,
2013-01-07 08:47:00,24.5,19.2,30.38,WSW,244,6.0,6.0,80,0.00,OVC,,0.02,28.0,WeatherDisplay:10.37,2013-01-07 13:47:00,
2013-01-07 08:52:00,24.5,19.2,30.38,West,280,12.0,12.0,80,0.00,OVC,,0.02,35.0,WeatherDisplay:10.37,2013-01-07 13:52:00,
2013-01-07 08:57:00,24.5,19.2,30.39,WSW,238,4.0,4.0,80,0.00,OVC,,0.02,40.0,WeatherDisplay:10.37,2013-01-07 13:57:00,
2013-01-07 09:02:00,24.5,19.2,30.39,WSW,239,9.2,9.2,80,0.00,OVC,,0.02,42.0,WeatherDisplay:10.37,2013-01-07 14:02:00,
2013-01-07 09:07:00,24.5,19.2,30.39,West,281,6.0,6.0,80,0.00,OVC,,0.02,40.0,WeatherDisplay:10.37,2013-01-07 14:07:00,
2013-01-07 09:12:00,24.5,18.9,30.39,WNW,289,9.2,9.2,79,0.00,OVC,,0.02,37.0,WeatherDisplay:10.37,2013-01-07 14:12:00,
2013-01-07 09:17:00,24.5,19.2,30.39,West,264,3.0,3.0,80,0.00,OVC,,0.02,39.0,WeatherDisplay:10.37,2013-01-07 14:17:00,
2013-01-07 09:22:00,24.5,18.9,30.39,West,265,10.4,10.4,79,0.00,OVC,,0.02,40.0,WeatherDisplay:10.37,2013-01-07 14:22:00,
2013-01-07 09:27:00,24.7,19.1,30.40,WNW,300,8.1,8.1,79,0.00,OVC,,0.02,42.0,WeatherDisplay:10.37,2013-01-07 14:27:00,
2013-01-07 09:32:00,24.5,18.9,30.40,West,275,11.5,11.5,79,0.00,OVC,,0.02,47.0,WeatherDisplay:10.37,2013-01-07 14:32:00,
2013-01-07 09:37:00,24.5,18.9,30.40,SW,225,6.0,6.0,79,0.00,OVC,,0.02,51.0,WeatherDisplay:10.37,2013-01-07 14:37:00,
2013-01-07 09:42:00,24.5,18.9,30.40,WSW,249,10.0,10.0,79,0.00,OVC,,0.02,58.0,WeatherDisplay:10.37,2013-01-07 14:42:00,
2013-01-07 09:47:00,24.4,18.8,30.40,WNW,293,6.0,6.0,79,0.00,OVC,,0.02,56.0,WeatherDisplay:10.37,2013-01-07 14:47:00,
2013-01-07 09:52:00,24.4,18.5,30.40,West,260,7.0,7.0,78,0.00,OVC,,0.02,65.0,WeatherDisplay:10.37,2013-01-07 14:52:00,
2013-01-07 09:57:00,24.2,18.6,30.41,West,276,8.1,8.1,79,0.00,OVC,,0.02,67.0,WeatherDisplay:10.37,2013-01-07 14:57:00,
2013-01-07 10:02:00,24.2,18.6,30.41,West,279,4.0,4.0,79,0.00,OVC,,0.02,77.0,WeatherDisplay:10.37,2013-01-07 15:02:00,
2013-01-07 10:07:00,24.2,18.6,30.41,West,260,6.0,6.0,79,0.00,OVC,,0.02,72.0,WeatherDisplay:10.37,2013-01-07 15:07:00,
2013-01-07 10:12:00,24.4,18.8,30.41,NW,304,6.0,6.0,79,0.00,OVC,,0.02,77.0,WeatherDisplay:10.37,2013-01-07 15:12:00,
2013-01-07 10:17:00,24.4,18.8,30.41,WNW,289,10.4,10.4,79,0.00,OVC,,0.02,81.0,WeatherDisplay:10.37,2013-01-07 15:17:00,
2013-01-07 10:22:00,24.2,18.6,30.41,WNW,286,6.9,6.9,79,0.00,OVC,,0.02,84.0,WeatherDisplay:10.37,2013-01-07 15:22:00,
2013-01-07 10:27:00,24.2,18.6,30.42,NW,314,6.0,6.0,79,0.00,OVC,,0.02,90.0,WeatherDisplay:10.37,2013-01-07 15:27:00,
2013-01-07 10:32:00,24.2,18.6,30.42,NW,312,5.0,5.0,79,0.00,OVC,,0.02,100.0,WeatherDisplay:10.37,2013-01-07 15:32:00,
2013-01-07 10:37:00,24.4,18.8,30.42,NW,311,7.0,7.0,79,0.00,OVC,,0.02,107.0,WeatherDisplay:10.37,2013-01-07 15:37:00,
2013-01-07 10:42:00,24.4,18.8,30.42,WNW,293,6.9,6.9,79,0.00,OVC,,0.02,105.0,WeatherDisplay:10.37,2013-01-07 15:42:00,
2013-01-07 10:47:00,24.5,18.9,30.42,WNW,293,10.0,10.0,79,0.00,OVC,,0.02,104.0,WeatherDisplay:10.37,2013-01-07 15:47:00,
2013-01-07 10:52:00,24.5,18.9,30.42,NW,310,6.0,6.0,79,0.00,OVC,,0.02,102.0,WeatherDisplay:10.37,2013-01-07 15:52:00,
2013-01-07 10:57:00,24.7,19.1,30.41,West,275,9.2,9.2,79,0.00,OVC,,0.02,109.0,WeatherDisplay:10.37,2013-01-07 15:57:00,
2013-01-07 11:02:00,24.7,19.1,30.41,West,272,7.0,7.0,79,0.00,OVC,,0.02,111.0,WeatherDisplay:10.37,2013-01-07 16:02:00,
2013-01-07 11:07:00,24.8,19.2,30.41,WSW,246,4.0,4.0,79,0.00,OVC,,0.02,113.0,WeatherDisplay:10.37,2013-01-07 16:07:00,
2013-01-07 11:12:00,24.8,18.9,30.42,WNW,303,6.9,6.9,78,0.00,OVC,,0.02,127.0,WeatherDisplay:10.37,2013-01-07 16:12:00,
2013-01-07 11:17:00,24.8,18.9,30.42,WNW,287,6.0,6.0,78,0.00,OVC,,0.02,127.0,WeatherDisplay:10.37,2013-01-07 16:17:00,
2013-01-07 11:22:00,24.8,18.9,30.42,WNW,300,6.0,6.0,78,0.00,OVC,,0.02,123.0,WeatherDisplay:10.37,2013-01-07 16:22:00,
2013-01-07 11:27:00,25.0,19.1,30.41,WNW,296,5.0,5.0,78,0.00,OVC,,0.02,125.0,WeatherDisplay:10.37,2013-01-07 16:27:00,
2013-01-07 11:32:00,25.1,19.2,30.41,WNW,293,4.6,4.6,78,0.00,OVC,,0.02,135.0,WeatherDisplay:10.37,2013-01-07 16:32:00,
2013-01-07 11:37:00,25.1,19.2,30.41,West,274,6.0,6.0,78,0.00,OVC,,0.02,132.0,WeatherDisplay:10.37,2013-01-07 16:37:00,
2013-01-07 11:42:00,25.3,19.4,30.41,West,280,4.0,4.0,78,0.00,OVC,,0.02,153.0,WeatherDisplay:10.37,2013-01-07 16:42:00,
2013-01-07 11:47:00,25.6,19.7,30.41,NNW,327,6.0,6.0,78,0.00,OVC,,0.02,137.0,WeatherDisplay:10.37,2013-01-07 16:47:00,
2013-01-07 11:52:00,25.7,19.8,30.41,NW,309,7.0,7.0,78,0.00,OVC,,0.02,137.0,WeatherDisplay:10.37,2013-01-07 16:52:00,
2013-01-07 11:57:00,25.7,19.5,30.41,WNW,301,7.0,7.0,77,0.00,OVC,,0.02,144.0,WeatherDisplay:10.37,2013-01-07 16:57:00,
2013-01-07 12:02:00,25.7,19.5,30.41,NW,316,6.0,6.0,77,0.00,OVC,,0.02,146.0,WeatherDisplay:10.37,2013-01-07 17:02:00,
2013-01-07 12:07:00,25.8,19.6,30.41,NW,310,7.0,7.0,77,0.00,OVC,,0.02,149.0,WeatherDisplay:10.37,2013-01-07 17:07:00,
2013-01-07 12:12:00,26.0,19.8,30.40,NW,326,4.0,4.0,77,0.00,OVC,,0.02,162.0,WeatherDisplay:10.37,2013-01-07 17:12:00,
2013-01-07 12:17:00,26.1,19.9,30.40,NW,315,4.6,4.6,77,0.00,OVC,,0.02,146.0,WeatherDisplay:10.37,2013-01-07 17:17:00,
2013-01-07 12:22:00,26.3,19.8,30.40,NW,313,3.5,3.5,76,0.00,OVC,,0.02,132.0,WeatherDisplay:10.37,2013-01-07 17:22:00,
2013-01-07 12:27:00,26.4,19.9,30.40,NNW,334,5.0,5.0,76,0.00,OVC,,0.02,134.0,WeatherDisplay:10.37,2013-01-07 17:27:00,
2013-01-07 12:32:00,26.6,20.1,30.40,NW,307,4.0,4.0,76,0.00,OVC,,0.02,134.0,WeatherDisplay:10.37,2013-01-07 17:32:00,
2013-01-07 12:37:00,26.7,20.1,30.40,NW,309,0.0,0.0,76,0.00,OVC,,0.02,155.0,WeatherDisplay:10.37,2013-01-07 17:37:00,
2013-01-07 12:42:00,26.7,20.1,30.39,West,280,2.3,2.3,76,0.00,OVC,,0.02,156.0,WeatherDisplay:10.37,2013-01-07 17:42:00,
2013-01-07 12:47:00,26.9,20.0,30.39,NW,305,5.0,5.0,75,0.00,OVC,,0.02,137.0,WeatherDisplay:10.37,2013-01-07 17:47:00,
2013-01-07 12:52:00,26.9,20.0,30.39,WNW,303,9.0,9.0,75,0.00,OVC,,0.02,125.0,WeatherDisplay:10.37,2013-01-07 17:52:00,
2013-01-07 12:57:00,26.9,20.0,30.40,NW,314,3.5,3.5,75,0.00,OVC,,0.02,107.0,WeatherDisplay:10.37,2013-01-07 17:57:00,
2013-01-07 13:02:00,26.7,19.8,30.40,West,270,6.0,6.0,75,0.00,OVC,,0.02,98.0,WeatherDisplay:10.37,2013-01-07 18:02:00,
2013-01-07 13:07:00,26.6,19.7,30.40,West,272,3.5,0.0,75,0.00,OVC,,0.02,100.0,WeatherDisplay:10.37,2013-01-07 18:07:00,
2013-01-07 13:12:00,26.7,19.8,30.39,SW,232,5.0,5.0,75,0.00,OVC,,0.02,98.0,WeatherDisplay:10.37,2013-01-07 18:12:00,
2013-01-07 13:17:00,26.7,19.8,30.39,West,267,7.0,7.0,75,0.00,OVC,,0.02,90.0,WeatherDisplay:10.37,2013-01-07 18:17:00,
2013-01-07 13:22:00,26.7,19.8,30.39,West,281,4.0,4.0,75,0.00,OVC,,0.02,95.0,WeatherDisplay:10.37,2013-01-07 18:22:00,
2013-01-07 13:27:00,26.9,20.0,30.40,WNW,295,10.4,10.4,75,0.00,OVC,,0.02,107.0,WeatherDisplay:10.37,2013-01-07 18:27:00,
2013-01-07 13:32:00,27.0,19.8,30.40,WNW,284,6.9,6.9,74,0.00,OVC,,0.02,105.0,WeatherDisplay:10.37,2013-01-07 18:32:00,
2013-01-07 13:37:00,27.0,19.8,30.40,West,276,7.0,7.0,74,0.00,OVC,,0.02,93.0,WeatherDisplay:10.37,2013-01-07 18:37:00,
2013-01-07 13:42:00,27.0,19.8,30.40,SW,232,5.8,5.8,74,0.00,OVC,,0.02,95.0,WeatherDisplay:10.37,2013-01-07 18:42:00,
2013-01-07 13:47:00,26.9,19.7,30.40,WSW,257,6.9,6.9,74,0.00,OVC,,0.02,93.0,WeatherDisplay:10.37,2013-01-07 18:47:00,
2013-01-07 13:52:00,26.9,19.7,30.40,West,275,3.5,3.5,74,0.00,OVC,,0.02,90.0,WeatherDisplay:10.37,2013-01-07 18:52:00,
2013-01-07 13:57:00,27.0,19.8,30.40,WNW,284,4.6,4.6,74,0.00,OVC,,0.02,91.0,WeatherDisplay:10.37,2013-01-07 18:57:00,
2013-01-07 14:02:00,27.2,20.0,30.40,WNW,284,3.0,3.0,74,0.00,OVC,,0.02,90.0,WeatherDisplay:10.37,2013-01-07 19:02:00,
2013-01-07 14:07:00,27.3,20.1,30.40,WSW,237,4.0,4.0,74,0.00,OVC,,0.02,81.0,WeatherDisplay:10.37,2013-01-07 19:07:00,
2013-01-07 14:12:00,27.5,20.3,30.40,SW,234,3.5,3.5,74,0.00,OVC,,0.02,84.0,WeatherDisplay:10.37,2013-01-07 19:12:00,
2013-01-07 14:17:00,27.3,19.8,30.40,SW,223,2.3,2.3,73,0.00,OVC,,0.02,74.0,WeatherDisplay:10.37,2013-01-07 19:17:00,
2013-01-07 14:22:00,27.3,19.8,30.40,SSW,212,4.0,4.0,73,0.00,OVC,,0.02,74.0,WeatherDisplay:10.37,2013-01-07 19:22:00,
2013-01-07 14:27:00,27.3,19.8,30.40,South,180,3.5,3.5,73,0.00,OVC,,0.02,76.0,WeatherDisplay:10.37,2013-01-07 19:27:00,
2013-01-07 14:32:00,27.5,20.3,30.40,WNW,298,5.0,5.0,74,0.00,OVC,,0.02,84.0,WeatherDisplay:10.37,2013-01-07 19:32:00,
2013-01-07 14:37:00,27.6,20.1,30.40,WNW,298,5.0,5.0,73,0.00,OVC,,0.02,84.0,WeatherDisplay:10.37,2013-01-07 19:37:00,
2013-01-07 14:42:00,27.6,20.1,30.41,South,173,4.0,4.0,73,0.00,OVC,,0.02,83.0,WeatherDisplay:10.37,2013-01-07 19:42:00,
2013-01-07 14:47:00,27.6,19.4,30.41,SSW,208,7.0,7.0,71,0.00,OVC,,0.02,77.0,WeatherDisplay:10.37,2013-01-07 19:47:00,
2013-01-07 14:52:00,27.5,19.3,30.41,West,262,9.2,9.2,71,0.00,OVC,,0.02,79.0,WeatherDisplay:10.37,2013-01-07 19:52:00,
2013-01-07 14:57:00,27.5,19.3,30.41,WSW,248,4.0,4.0,71,0.00,OVC,,0.02,74.0,WeatherDisplay:10.37,2013-01-07 19:57:00,
2013-01-07 15:02:00,27.6,19.4,30.41,WNW,291,6.0,6.0,71,0.00,OVC,,0.02,69.0,WeatherDisplay:10.37,2013-01-07 20:02:00,
2013-01-07 15:07:00,27.6,19.4,30.41,SW,227,4.0,4.0,71,0.00,OVC,,0.02,67.0,WeatherDisplay:10.37,2013-01-07 20:07:00,
2013-01-07 15:12:00,27.8,19.6,30.41,WSW,253,3.0,3.0,71,0.00,OVC,,0.02,54.0,WeatherDisplay:10.37,2013-01-07 20:12:00,
2013-01-07 15:17:00,27.8,19.3,30.41,WNW,283,9.0,9.0,70,0.00,OVC,,0.02,54.0,WeatherDisplay:10.37,2013-01-07 20:17:00,
2013-01-07 15:19:00,27.8,19.3,30.41,WNW,284,10.4,10.4,70,0.00,OVC,,0.02,54.0,WeatherDisplay:10.37,2013-01-07 20:19:00,
2013-01-07 15:24:00,27.8,19.6,30.41,WSW,243,5.0,5.0,71,0.00,OVC,,0.02,53.0,WeatherDisplay:10.37,2013-01-07 20:24:00,
2013-01-07 15:29:00,27.6,19.1,30.41,WSW,243,4.0,4.0,70,0.00,OVC,,0.02,56.0,WeatherDisplay:10.37,2013-01-07 20:29:00,
2013-01-07 15:34:00,27.8,19.3,30.41,West,262,3.5,3.5,70,0.00,OVC,,0.02,53.0,WeatherDisplay:10.37,2013-01-07 20:34:00,
2013-01-07 15:39:00,27.8,19.3,30.41,SW,229,5.0,5.0,70,0.00,OVC,,0.02,46.0,WeatherDisplay:10.37,2013-01-07 20:39:00,
2013-01-07 15:44:00,27.6,19.4,30.40,South,191,2.3,2.3,71,0.00,OVC,,0.02,40.0,WeatherDisplay:10.37,2013-01-07 20:44:00,
2013-01-07 15:49:00,27.6,19.1,30.40,WSW,238,4.0,4.0,70,0.00,OVC,,0.02,39.0,WeatherDisplay:10.37,2013-01-07 20:49:00,
2013-01-07 15:54:00,27.8,19.3,30.40,WSW,238,0.0,0.0,70,0.00,OVC,,0.02,35.0,WeatherDisplay:10.37,2013-01-07 20:54:00,
2013-01-07 15:59:00,27.9,19.4,30.40,WSW,238,1.0,1.0,70,0.00,OVC,,0.02,28.0,WeatherDisplay:10.37,2013-01-07 20:59:00,
2013-01-07 16:04:00,27.9,19.4,30.40,WSW,239,2.3,2.3,70,0.00,OVC,,0.02,23.0,WeatherDisplay:10.37,2013-01-07 21:04:00,
2013-01-07 16:09:00,28.1,19.6,30.40,WSW,239,2.3,0.0,70,0.00,OVC,,0.02,19.0,WeatherDisplay:10.37,2013-01-07 21:09:00,
2013-01-07 16:14:00,28.1,19.6,30.40,WSW,239,0.0,0.0,70,0.00,OVC,,0.02,16.0,WeatherDisplay:10.37,2013-01-07 21:14:00,
2013-01-07 16:19:00,28.1,19.6,30.40,WSW,239,0.0,0.0,70,0.00,OVC,,0.02,12.0,WeatherDisplay:10.37,2013-01-07 21:19:00,
2013-01-07 16:24:00,28.1,19.2,30.40,WSW,239,0.0,0.0,69,0.00,OVC,,0.02,11.0,WeatherDisplay:10.37,2013-01-07 21:24:00,
2013-01-07 16:29:00,28.1,19.2,30.40,WSW,239,0.0,0.0,69,0.00,OVC,,0.02,7.0,WeatherDisplay:10.37,2013-01-07 21:29:00,
2013-01-07 16:34:00,27.9,19.0,30.40,WSW,239,0.0,0.0,69,0.00,OVC,,0.02,5.0,WeatherDisplay:10.37,2013-01-07 21:34:00,
2013-01-07 16:39:00,27.8,19.3,30.40,WSW,239,0.0,0.0,70,0.00,OVC,,0.02,0.0,WeatherDisplay:10.37,2013-01-07 21:39:00,
2013-01-07 16:44:00,27.6,19.1,30.40,WSW,239,0.0,0.0,70,0.00,OVC,,0.02,0.0,WeatherDisplay:10.37,2013-01-07 21:44:00,
2013-01-07 16:49:00,27.6,19.4,30.40,WSW,239,0.0,0.0,71,0.00,OVC,,0.02,0.0,WeatherDisplay:10.37,2013-01-07 21:49:00,
2013-01-07 16:54:00,27.6,19.4,30.40,WSW,239,0.0,0.0,71,0.00,OVC,,0.02,0.0,WeatherDisplay:10.37,2013-01-07 21:54:00,
2013-01-07 16:59:00,27.6,19.4,30.39,WSW,239,0.0,0.0,71,0.00,OVC,,0.02,0.0,WeatherDisplay:10.37,2013-01-07 21:59:00,
2013-01-07 17:04:00,27.3,19.5,30.39,WSW,239,0.0,0.0,72,0.00,OVC,,0.02,0.0,WeatherDisplay:10.37,2013-01-07 22:04:00,
2013-01-07 17:09:00,27.2,19.4,30.39,WSW,239,0.0,0.0,72,0.00,OVC,,0.02,0.0,WeatherDisplay:10.37,2013-01-07 22:09:00,
2013-01-07 17:14:00,26.9,19.4,30.39,WSW,239,0.0,0.0,73,0.00,OVC,,0.02,0.0,WeatherDisplay:10.37,2013-01-07 22:14:00,
2013-01-07 17:19:00,26.6,19.1,30.39,WSW,239,0.0,0.0,73,0.00,OVC,,0.02,0.0,WeatherDisplay:10.37,2013-01-07 22:19:00,
2013-01-07 17:24:00,26.3,18.5,30.39,WSW,239,0.0,0.0,72,0.00,OVC,,0.02,0.0,WeatherDisplay:10.37,2013-01-07 22:24:00,
2013-01-07 17:29:00,25.8,18.3,30.38,WSW,239,0.0,0.0,73,0.00,OVC,,0.02,0.0,WeatherDisplay:10.37,2013-01-07 22:29:00,
2013-01-07 17:34:00,25.3,17.9,30.38,WSW,239,0.0,0.0,73,0.00,OVC,,0.02,0.0,WeatherDisplay:10.37,2013-01-07 22:34:00,
2013-01-07 17:39:00,24.7,17.6,30.38,WSW,239,0.0,0.0,74,0.00,OVC,,0.02,0.0,WeatherDisplay:10.37,2013-01-07 22:39:00,
2013-01-07 17:44:00,24.1,17.3,30.37,WSW,237,2.3,2.3,75,0.00,OVC,,0.02,0.0,WeatherDisplay:10.37,2013-01-07 22:44:00,
2013-01-07 17:49:00,23.2,16.8,30.37,WSW,237,0.0,0.0,76,0.00,OVC,,0.02,0.0,WeatherDisplay:10.37,2013-01-07 22:49:00,
2013-01-07 17:54:00,22.5,16.4,30.37,ENE,78,1.1,1.1,77,0.00,OVC,,0.02,0.0,WeatherDisplay:10.37,2013-01-07 22:54:00,
2013-01-07 17:59:00,21.9,16.1,30.36,ENE,78,2.3,2.3,78,0.00,OVC,,0.02,0.0,WeatherDisplay:10.37,2013-01-07 22:59:00,
2013-01-07 18:04:00,21.4,15.9,30.36,ENE,78,0.0,0.0,79,0.00,SCT,,0.02,0.0,WeatherDisplay:10.37,2013-01-07 23:04:00,
2013-01-07 18:09:00,21.3,16.1,30.36,ENE,78,1.0,1.0,80,0.00,SCT,,0.02,0.0,WeatherDisplay:10.37,2013-01-07 23:09:00,
2013-01-07 18:14:00,21.0,15.8,30.36,ENE,78,0.0,0.0,80,0.00,BKN,,0.02,0.0,WeatherDisplay:10.37,2013-01-07 23:14:00,
2013-01-07 18:19:00,20.6,15.4,30.36,ENE,78,3.5,3.5,80,0.00,BKN,,0.02,0.0,WeatherDisplay:10.37,2013-01-07 23:19:00,
2013-01-07 18:24:00,20.2,15.3,30.36,ENE,78,3.5,3.5,81,0.00,BKN,,0.02,0.0,WeatherDisplay:10.37,2013-01-07 23:24:00,
2013-01-07 18:29:00,20.2,15.6,30.36,ESE,111,3.5,3.5,82,0.00,BKN,,0.02,0.0,WeatherDisplay:10.37,2013-01-07 23:29:00,
2013-01-07 18:34:00,20.5,16.2,30.36,ESE,112,4.0,4.0,83,0.00,BKN,,0.02,0.0,WeatherDisplay:10.37,2013-01-07 23:34:00,
2013-01-07 18:39:00,20.8,16.5,30.36,East,94,4.0,4.0,83,0.00,BKN,,0.02,0.0,WeatherDisplay:10.37,2013-01-07 23:39:00,
2013-01-07 18:44:00,21.1,16.5,30.35,East,96,3.5,3.5,82,0.00,BKN,,0.02,0.0,WeatherDisplay:10.37,2013-01-07 23:44:00,
2013-01-07 18:49:00,21.3,16.7,30.35,East,101,3.5,3.5,82,0.00,BKN,,0.02,0.0,WeatherDisplay:10.37,2013-01-07 23:49:00,
2013-01-07 18:54:00,21.3,16.7,30.35,East,101,4.0,4.0,82,0.00,BKN,,0.02,0.0,WeatherDisplay:10.37,2013-01-07 23:54:00,
2013-01-07 18:59:00,21.3,16.7,30.35,ESE,109,4.6,4.6,82,0.00,BKN,,0.02,0.0,WeatherDisplay:10.37,2013-01-07 23:59:00,
2013-01-07 19:04:00,21.3,16.7,30.35,SE,125,3.5,3.5,82,0.00,BKN,,0.02,0.0,WeatherDisplay:10.37,2013-01-08 00:04:00,
2013-01-07 19:09:00,21.4,16.8,30.35,SE,130,4.0,4.0,82,0.00,BKN,,0.02,0.0,WeatherDisplay:10.37,2013-01-08 00:09:00,
2013-01-07 19:14:00,21.4,16.8,30.35,SE,125,3.5,3.5,82,0.00,CLR,,0.02,0.0,WeatherDisplay:10.37,2013-01-08 00:14:00,
2013-01-07 19:19:00,21.6,17.0,30.35,ESE,122,4.6,4.6,82,0.00,CLR,,0.02,0.0,WeatherDisplay:10.37,2013-01-08 00:19:00,
2013-01-07 19:24:00,21.6,17.0,30.35,ESE,103,4.0,4.0,82,0.00,CLR,,0.02,0.0,WeatherDisplay:10.37,2013-01-08 00:24:00,
2013-01-07 19:29:00,21.6,17.0,30.34,ESE,123,6.0,6.0,82,0.00,CLR,,0.02,0.0,WeatherDisplay:10.37,2013-01-08 00:29:00,
2013-01-07 19:34:00,21.6,17.0,30.34,ESE,104,4.0,4.0,82,0.00,CLR,,0.02,0.0,WeatherDisplay:10.37,2013-01-08 00:34:00,
2013-01-07 19:39:00,21.6,17.0,30.34,ESE,108,6.0,6.0,82,0.00,CLR,,0.02,0.0,WeatherDisplay:10.37,2013-01-08 00:39:00,
2013-01-07 19:44:00,21.6,16.7,30.34,ESE,111,3.5,3.5,81,0.00,CLR,,0.02,0.0,WeatherDisplay:10.37,2013-01-08 00:44:00,
2013-01-07 19:49:00,21.4,16.8,30.34,ESE,122,3.5,3.5,82,0.00,CLR,,0.02,0.0,WeatherDisplay:10.37,2013-01-08 00:49:00,
2013-01-07 19:54:00,21.6,16.7,30.34,ESE,108,6.0,6.0,81,0.00,CLR,,0.02,0.0,WeatherDisplay:10.37,2013-01-08 00:54:00,
2013-01-07 19:59:00,21.6,16.7,30.33,ESE,117,3.0,3.0,81,0.00,CLR,,0.02,0.0,WeatherDisplay:10.37,2013-01-08 00:59:00,
2013-01-07 20:04:00,21.4,16.5,30.33,ESE,106,3.0,3.0,81,0.00,CLR,,0.02,0.0,WeatherDisplay:10.37,2013-01-08 01:04:00,
2013-01-07 20:09:00,21.4,16.5,30.33,ESE,111,2.3,0.0,81,0.00,CLR,,0.02,0.0,WeatherDisplay:10.37,2013-01-08 01:09:00,
2013-01-07 20:14:00,21.6,16.7,30.33,ESE,111,3.5,3.5,81,0.00,CLR,,0.02,0.0,WeatherDisplay:10.37,2013-01-08 01:14:00,
2013-01-07 20:19:00,21.3,16.1,30.33,ESE,112,3.5,3.5,80,0.00,CLR,,0.02,0.0,WeatherDisplay:10.37,2013-01-08 01:19:00,
2013-01-07 20:24:00,20.8,15.6,30.33,ESE,118,4.0,4.0,80,0.00,CLR,,0.02,0.0,WeatherDisplay:10.37,2013-01-08 01:24:00,
2013-01-07 20:29:00,20.3,15.1,30.33,SE,136,3.5,3.5,80,0.00,CLR,,0.02,0.0,WeatherDisplay:10.37,2013-01-08 01:29:00,
2013-01-07 20:34:00,19.7,14.8,30.33,SE,128,4.0,4.0,81,0.00,CLR,,0.02,0.0,WeatherDisplay:10.37,2013-01-08 01:34:00,
2013-01-07 20:39:00,19.4,14.5,30.33,SE,129,3.5,3.5,81,0.00,CLR,,0.02,0.0,WeatherDisplay:10.37,2013-01-08 01:39:00,
2013-01-07 20:44:00,19.1,14.2,30.33,SE,129,3.5,3.5,81,0.00,CLR,,0.02,0.0,WeatherDisplay:10.37,2013-01-08 01:44:00,
2013-01-07 20:49:00,18.6,13.7,30.33,SE,129,2.3,2.3,81,0.00,CLR,,0.02,0.0,WeatherDisplay:10.37,2013-01-08 01:49:00,
2013-01-07 20:54:00,18.4,13.8,30.33,SE,129,0.0,0.0,82,0.00,CLR,,0.02,0.0,WeatherDisplay:10.37,2013-01-08 01:54:00,
2013-01-07 20:59:00,18.3,13.7,30.33,SE,131,4.0,4.0,82,0.00,CLR,,0.02,0.0,WeatherDisplay:10.37,2013-01-08 01:59:00,
2013-01-07 21:04:00,18.1,13.5,30.33,East,101,5.0,5.0,82,0.00,CLR,,0.02,0.0,WeatherDisplay:10.37,2013-01-08 02:04:00,
2013-01-07 21:09:00,18.1,13.8,30.33,East,99,2.3,2.3,83,0.00,CLR,,0.02,0.0,WeatherDisplay:10.37,2013-01-08 02:09:00,
2013-01-07 21:14:00,18.1,13.8,30.33,East,99,2.3,2.3,83,0.00,CLR,,0.02,0.0,WeatherDisplay:10.37,2013-01-08 02:14:00,
2013-01-07 21:19:00,17.8,13.5,30.33,East,99,1.1,1.1,83,0.00,CLR,,0.02,0.0,WeatherDisplay:10.37,2013-01-08 02:19:00,
2013-01-07 21:24:00,17.7,13.4,30.33,East,99,3.5,0.0,83,0.00,CLR,,0.02,0.0,WeatherDisplay:10.37,2013-01-08 02:24:00,
2013-01-07 21:29:00,17.3,13.0,30.32,East,99,1.1,0.0,83,0.00,CLR,,0.02,0.0,WeatherDisplay:10.37,2013-01-08 02:29:00,
2013-01-07 21:34:00,17.2,12.9,30.32,East,99,2.3,2.3,83,0.00,CLR,,0.02,0.0,WeatherDisplay:10.37,2013-01-08 02:34:00,
2013-01-07 21:39:00,17.0,12.7,30.32,East,99,2.3,2.3,83,0.00,CLR,,0.02,0.0,WeatherDisplay:10.37,2013-01-08 02:39:00,
2013-01-07 21:44:00,16.7,12.4,30.32,East,85,4.0,4.0,83,0.00,CLR,,0.02,0.0,WeatherDisplay:10.37,2013-01-08 02:44:00,
2013-01-07 21:49:00,16.9,12.9,30.32,East,87,3.0,3.0,84,0.00,CLR,,0.02,0.0,WeatherDisplay:10.37,2013-01-08 02:49:00,
2013-01-07 21:54:00,16.7,12.7,30.32,East,87,2.3,2.3,84,0.00,CLR,,0.02,0.0,WeatherDisplay:10.37,2013-01-08 02:54:00,
2013-01-07 21:59:00,16.7,12.7,30.31,East,88,2.3,2.3,84,0.00,CLR,,0.02,0.0,WeatherDisplay:10.37,2013-01-08 02:59:00,
2013-01-07 22:04:00,17.0,13.3,30.31,East,97,5.0,5.0,85,0.00,CLR,,0.02,0.0,WeatherDisplay:10.37,2013-01-08 03:04:00,
2013-01-07 22:09:00,17.3,13.6,30.31,East,98,0.0,0.0,85,0.00,CLR,,0.02,0.0,WeatherDisplay:10.37,2013-01-08 03:09:00,
2013-01-07 22:14:00,17.8,14.1,30.31,East,96,1.1,1.1,85,0.00,CLR,,0.02,0.0,WeatherDisplay:10.37,2013-01-08 03:14:00,
2013-01-07 22:19:00,17.7,14.0,30.31,East,81,3.0,3.0,85,0.00,CLR,,0.02,0.0,WeatherDisplay:10.37,2013-01-08 03:19:00,
2013-01-07 22:24:00,18.3,14.8,30.31,ENE,77,4.0,4.0,86,0.00,CLR,,0.02,0.0,WeatherDisplay:10.37,2013-01-08 03:24:00,
2013-01-07 22:29:00,18.8,15.3,30.30,ENE,65,3.5,3.5,86,0.00,CLR,,0.02,0.0,WeatherDisplay:10.37,2013-01-08 03:29:00,
2013-01-07 22:34:00,18.9,15.4,30.30,ENE,65,0.0,0.0,86,0.00,CLR,,0.02,0.0,WeatherDisplay:10.37,2013-01-08 03:34:00,
2013-01-07 22:39:00,18.9,15.1,30.30,ENE,65,2.3,2.3,85,0.00,CLR,,0.02,0.0,WeatherDisplay:10.37,2013-01-08 03:39:00,
2013-01-07 22:44:00,18.3,14.3,30.31,ENE,67,3.5,3.5,84,0.00,CLR,,0.02,0.0,WeatherDisplay:10.37,2013-01-08 03:44:00,
2013-01-07 22:49:00,17.8,13.8,30.31,ENE,68,2.3,2.3,84,0.00,CLR,,0.02,0.0,WeatherDisplay:10.37,2013-01-08 03:49:00,
2013-01-07 22:54:00,17.2,12.9,30.31,ENE,71,3.5,3.5,83,0.00,CLR,,0.02,0.0,WeatherDisplay:10.37,2013-01-08 03:54:00,
2013-01-07 22:59:00,16.7,12.7,30.30,ENE,72,3.5,3.5,84,0.00,CLR,,0.02,0.0,WeatherDisplay:10.37,2013-01-08 03:59:00,
2013-01-07 23:04:00,16.1,12.1,30.30,East,92,4.0,4.0,84,0.00,CLR,,0.02,0.0,WeatherDisplay:10.37,2013-01-08 04:04:00,
2013-01-07 23:09:00,15.7,11.7,30.30,East,95,2.3,2.3,84,0.00,CLR,,0.02,0.0,WeatherDisplay:10.37,2013-01-08 04:09:00,
2013-01-07 23:14:00,15.4,11.4,30.30,East,95,3.5,3.5,84,0.00,CLR,,0.02,0.0,WeatherDisplay:10.37,2013-01-08 04:14:00,
2013-01-07 23:19:00,15.1,11.4,30.30,East,96,2.3,2.3,85,0.00,CLR,,0.02,0.0,WeatherDisplay:10.37,2013-01-08 04:19:00,
2013-01-07 23:24:00,14.9,11.2,30.30,East,97,3.5,3.5,85,0.00,CLR,,0.02,0.0,WeatherDisplay:10.37,2013-01-08 04:24:00,
2013-01-07 23:29:00,14.8,11.1,30.30,SE,142,3.5,3.5,85,0.00,CLR,,0.02,0.0,WeatherDisplay:10.37,2013-01-08 04:29:00,
2013-01-07 23:34:00,14.8,11.4,30.30,SE,138,5.0,5.0,86,0.00,CLR,,0.02,0.0,WeatherDisplay:10.37,2013-01-08 04:34:00,
2013-01-07 23:39:00,14.9,11.5,30.30,SE,142,3.5,3.5,86,0.00,CLR,,0.02,0.0,WeatherDisplay:10.37,2013-01-08 04:39:00,
2013-01-07 23:44:00,14.8,11.1,30.29,SE,142,3.5,3.5,85,0.00,CLR,,0.02,0.0,WeatherDisplay:10.37,2013-01-08 04:44:00,
2013-01-07 23:49:00,14.4,10.7,30.29,SE,142,3.5,3.5,85,0.00,CLR,,0.02,0.0,WeatherDisplay:10.37,2013-01-08 04:49:00,
2013-01-07 23:54:00,14.4,11.0,30.29,SE,146,3.5,3.5,86,0.00,CLR,,0.02,0.0,WeatherDisplay:10.37,2013-01-08 04:54:00,
2013-01-07 23:59:00,14.4,11.0,30.28,SE,146,2.3,2.3,86,0.00,CLR,,0.02,0.0,WeatherDisplay:10.37,2013-01-08 04:59:00,